createdAt,value
2018-06-03T00:01:02.146Z,1018.1
2018-06-03T00:06:14.054Z,1018.1
2018-06-03T00:11:13.773Z,1018.1
2018-06-03T00:16:13.767Z,1018.1
2018-06-03T00:21:13.728Z,1018
2018-06-03T00:26:14.238Z,1018
2018-06-03T00:31:13.795Z,1018
2018-06-03T00:36:13.798Z,1018
2018-06-03T00:41:14.120Z,1018
2018-06-03T00:46:14.064Z,1018
2018-06-03T00:51:26.236Z,1017.9
2018-06-03T00:56:25.942Z,1017.9
2018-06-03T01:01:26.085Z,1017.9
2018-06-03T01:06:26.109Z,1017.9
2018-06-03T01:11:25.974Z,1017.9
2018-06-03T01:16:26.189Z,1017.8
2018-06-03T01:21:26.125Z,1017.8
2018-06-03T01:26:26.000Z,1017.8
2018-06-03T01:31:26.189Z,1017.7
2018-06-03T01:36:37.886Z,1017.7
2018-06-03T01:41:37.848Z,1017.6
2018-06-03T01:46:37.573Z,1017.5
2018-06-03T01:51:37.826Z,1017.5
2018-06-03T01:56:37.762Z,1017.5
2018-06-03T02:01:37.609Z,1017.5
2018-06-03T02:06:37.791Z,1017.5
2018-06-03T02:11:38.869Z,1017.5
2018-06-03T02:16:38.596Z,1017.5
2018-06-03T02:21:52.146Z,1017.5
2018-06-03T02:26:52.036Z,1017.6
2018-06-03T02:31:51.892Z,1017.6
2018-06-03T02:36:51.914Z,1017.6
2018-06-03T02:41:51.896Z,1017.6
2018-06-03T02:46:52.126Z,1017.6
2018-06-03T02:51:52.048Z,1017.7
2018-06-03T02:56:51.922Z,1017.8
2018-06-03T03:01:52.146Z,1017.8
2018-06-03T03:07:03.903Z,1017.8
2018-06-03T03:12:03.655Z,1017.8
2018-06-03T03:17:03.646Z,1017.8
2018-06-03T03:22:03.656Z,1017.8
2018-06-03T03:27:03.693Z,1017.8
2018-06-03T03:32:03.771Z,1017.9
2018-06-03T03:37:03.683Z,1017.9
2018-06-03T03:42:04.054Z,1017.9
2018-06-03T03:47:03.642Z,1017.9
2018-06-03T03:52:15.997Z,1018
2018-06-03T03:57:15.703Z,1017.9
2018-06-03T04:02:15.833Z,1018
2018-06-03T04:07:15.901Z,1018.1
2018-06-03T04:12:15.846Z,1018.1
2018-06-03T04:17:15.907Z,1018
2018-06-03T04:22:15.910Z,1018.2
2018-06-03T04:27:15.804Z,1018.2
2018-06-03T04:32:15.861Z,1018
2018-06-03T04:37:27.975Z,1018.1
2018-06-03T04:42:27.840Z,1018.1
2018-06-03T04:47:27.719Z,1018.1
2018-06-03T04:52:27.887Z,1018.3
2018-06-03T04:57:27.705Z,1018.3
2018-06-03T05:02:27.823Z,1018.3
2018-06-03T05:07:27.867Z,1018.4
2018-06-03T05:12:28.467Z,1018.5
2018-06-03T05:17:28.174Z,1018.5
2018-06-03T05:22:40.558Z,1018.5
2018-06-03T05:27:40.514Z,1018.5
2018-06-03T05:32:40.326Z,1018.5
2018-06-03T05:37:40.498Z,1018.5
2018-06-03T05:42:40.449Z,1018.4
2018-06-03T05:47:40.454Z,1018.4
2018-06-03T05:52:40.309Z,1018.3
2018-06-03T05:57:41.390Z,1018.1
2018-06-03T06:02:41.258Z,1018.1
2018-06-03T06:07:52.297Z,1018.1
2018-06-03T06:12:52.023Z,1018.1
2018-06-03T06:17:52.205Z,1017.9
2018-06-03T06:22:52.272Z,1017.9
2018-06-03T06:27:52.054Z,1017.8
2018-06-03T06:32:52.112Z,1017.8
2018-06-03T06:37:52.268Z,1017.8
2018-06-03T06:42:55.073Z,1017.6
2018-06-03T06:47:54.993Z,1017.5
2018-06-03T06:53:07.838Z,1017.5
2018-06-03T06:58:07.744Z,1017.3
2018-06-03T07:03:07.568Z,1017.3
2018-06-03T07:08:07.730Z,1017.3
2018-06-03T07:13:07.881Z,1017.3
2018-06-03T07:18:07.569Z,1017.3
2018-06-03T07:23:07.707Z,1017.2
2018-06-03T07:28:07.757Z,1017.1
2018-06-03T07:33:07.925Z,1017.2
2018-06-03T07:38:07.830Z,1017.2
2018-06-03T07:43:07.718Z,1017.2
2018-06-03T07:48:07.688Z,1017
2018-06-03T07:53:08.710Z,1016.9
2018-06-03T07:58:07.613Z,1016.9
2018-06-03T08:03:20.626Z,1016.9
2018-06-03T08:08:20.551Z,1016.8
2018-06-03T08:13:20.344Z,1016.8
2018-06-03T08:18:20.313Z,1016.7
2018-06-03T08:23:20.716Z,1016.6
2018-06-03T08:28:20.493Z,1016.7
2018-06-03T08:33:20.697Z,1016.7
2018-06-03T08:38:22.294Z,1016.7
2018-06-03T08:43:24.865Z,1016.5
2018-06-03T08:48:34.262Z,1016.6
2018-06-03T08:53:34.021Z,1016.4
2018-06-03T08:58:34.028Z,1016.4
2018-06-03T09:03:36.408Z,1016.4
2018-06-03T09:08:34.262Z,1016.4
2018-06-03T09:13:34.041Z,1016.5
2018-06-03T09:18:34.393Z,1016.5
2018-06-03T09:23:34.228Z,1016.4
2018-06-03T09:28:34.162Z,1016.5
2018-06-03T09:33:34.211Z,1016.3
2018-06-03T09:38:34.035Z,1016.3
2018-06-03T09:43:34.032Z,1016.3
2018-06-03T09:48:35.042Z,1016
2018-06-03T09:53:34.771Z,1016.2
2018-06-03T09:58:47.738Z,1016
2018-06-03T10:03:47.424Z,1016
2018-06-03T10:08:47.686Z,1015.9
2018-06-03T10:13:47.602Z,1015.8
2018-06-03T10:18:47.428Z,1015.6
2018-06-03T10:23:47.443Z,1015.9
2018-06-03T10:28:47.443Z,1015.5
2018-06-03T10:33:47.439Z,1015.6
2018-06-03T10:38:47.445Z,1015.7
2018-06-03T10:43:59.382Z,1015.5
2018-06-03T10:48:59.304Z,1015.3
2018-06-03T10:53:59.331Z,1015.3
2018-06-03T10:58:59.104Z,1015.3
2018-06-03T11:03:59.282Z,1015.1
2018-06-03T11:08:59.101Z,1015.3
2018-06-03T11:13:59.246Z,1015
2018-06-03T11:19:02.024Z,1015
2018-06-03T11:24:01.907Z,1014.9
2018-06-03T11:29:11.782Z,1014.8
2018-06-03T11:34:11.382Z,1014.6
2018-06-03T11:39:11.427Z,1014.6
2018-06-03T11:44:11.426Z,1014.6
2018-06-03T11:49:11.613Z,1014.5
2018-06-03T11:54:11.649Z,1014.6
2018-06-03T11:59:11.959Z,1014.4
2018-06-03T12:04:12.898Z,1014.3
2018-06-03T12:09:12.597Z,1014.2
2018-06-03T12:14:25.728Z,1014.4
2018-06-03T12:19:25.869Z,1014.3
2018-06-03T12:24:25.468Z,1014.1
2018-06-03T12:29:25.547Z,1014.1
2018-06-03T12:34:28.921Z,1014.2
2018-06-03T12:39:25.592Z,1014.1
2018-06-03T12:44:25.814Z,1013.9
2018-06-03T12:49:25.860Z,1013.8
2018-06-03T12:54:25.684Z,1013.8
2018-06-03T12:59:25.841Z,1013.7
2018-06-03T13:04:26.079Z,1013.6
2018-06-03T13:09:26.138Z,1013.7
2018-06-03T13:14:28.063Z,1013.7
2018-06-03T13:19:27.811Z,1013.6
2018-06-03T13:24:40.115Z,1013.5
2018-06-03T13:29:40.010Z,1013.5
2018-06-03T13:34:40.088Z,1013.5
2018-06-03T13:39:40.096Z,1013.6
2018-06-03T13:44:40.024Z,1013.4
2018-06-03T13:49:40.089Z,1013.3
2018-06-03T13:54:40.084Z,1013.3
2018-06-03T13:59:40.465Z,1013.3
2018-06-03T14:04:40.402Z,1013.3
2018-06-03T14:09:52.900Z,1013.5
2018-06-03T14:14:52.746Z,1013.5
2018-06-03T14:19:52.806Z,1013.4
2018-06-03T14:24:52.577Z,1013.6
2018-06-03T14:29:52.727Z,1013.5
2018-06-03T14:34:52.807Z,1013.6
2018-06-03T14:39:52.536Z,1013.3
2018-06-03T14:44:53.918Z,1013.4
2018-06-03T14:49:53.769Z,1013.5
2018-06-03T14:55:06.398Z,1013.2
2018-06-03T15:00:06.103Z,1013.3
2018-06-03T15:05:06.207Z,1013.3
2018-06-03T15:10:06.338Z,1013.3
2018-06-03T15:15:06.285Z,1013.2
2018-06-03T15:20:06.245Z,1013.1
2018-06-03T15:25:06.327Z,1013.2
2018-06-03T15:30:09.102Z,1013.2
2018-06-03T15:35:09.024Z,1013.2
2018-06-03T15:40:21.498Z,1013.1
2018-06-03T15:45:21.411Z,1013
2018-06-03T15:50:21.419Z,1012.8
2018-06-03T15:55:21.354Z,1012.8
2018-06-03T16:00:21.240Z,1012.8
2018-06-03T16:05:21.243Z,1012.8
2018-06-03T16:10:21.223Z,1012.8
2018-06-03T16:15:22.588Z,1012.8
2018-06-03T16:20:22.650Z,1012.8
2018-06-03T16:25:34.869Z,1012.7
2018-06-03T16:30:34.954Z,1012.6
2018-06-03T16:35:34.781Z,1012.6
2018-06-03T16:40:34.777Z,1012.6
2018-06-03T16:45:34.709Z,1012.6
2018-06-03T16:50:34.712Z,1012.6
2018-06-03T16:55:34.778Z,1012.5
2018-06-03T17:00:38.359Z,1012.7
2018-06-03T17:05:35.643Z,1012.5
2018-06-03T17:10:48.219Z,1012.6
2018-06-03T17:15:47.949Z,1012.6
2018-06-03T17:20:47.966Z,1012.6
2018-06-03T17:25:47.945Z,1012.5
2018-06-03T17:30:48.257Z,1012.5
2018-06-03T17:35:48.178Z,1012.5
2018-06-03T17:40:48.047Z,1012.5
2018-06-03T17:45:48.701Z,1012.5
2018-06-03T17:50:48.497Z,1012.4
2018-06-03T17:56:02.129Z,1012.4
2018-06-03T18:01:00.836Z,1012.4
2018-06-03T18:06:03.684Z,1012.4
2018-06-03T18:11:00.809Z,1012.5
2018-06-03T18:16:00.795Z,1012.5
2018-06-03T18:21:00.595Z,1012.6
2018-06-03T18:26:00.815Z,1012.6
2018-06-03T18:31:03.216Z,1012.6
2018-06-03T18:36:03.655Z,1012.7
2018-06-03T18:41:16.367Z,1012.6
2018-06-03T18:46:16.553Z,1012.8
2018-06-03T18:51:16.350Z,1012.8
2018-06-03T18:56:16.260Z,1012.9
2018-06-03T19:01:16.120Z,1012.8
2018-06-03T19:06:18.005Z,1013
2018-06-03T19:11:16.263Z,1013
2018-06-03T19:16:16.787Z,1013
2018-06-03T19:21:16.439Z,1013.1
2018-06-03T19:26:31.737Z,1013.3
2018-06-03T19:31:31.649Z,1013.3
2018-06-03T19:36:31.491Z,1013.4
2018-06-03T19:41:31.728Z,1013.5
2018-06-03T19:46:31.649Z,1013.5
2018-06-03T19:51:34.188Z,1013.5
2018-06-03T19:56:34.158Z,1013.6
2018-06-03T20:01:38.143Z,1013.6
2018-06-03T20:06:37.873Z,1013.7
2018-06-03T20:11:48.856Z,1013.8
2018-06-03T20:16:48.999Z,1013.8
2018-06-03T20:21:49.183Z,1013.8
2018-06-03T20:26:48.818Z,1013.9
2018-06-03T20:31:48.760Z,1013.9
2018-06-03T20:36:48.832Z,1013.8
2018-06-03T20:41:48.810Z,1013.8
2018-06-03T20:46:49.604Z,1014
2018-06-03T20:51:49.351Z,1014
2018-06-03T20:57:02.161Z,1014
2018-06-03T21:02:01.887Z,1013.9
2018-06-03T21:07:02.017Z,1013.9
2018-06-03T21:12:01.875Z,1014.1
2018-06-03T21:17:01.886Z,1014.1
2018-06-03T21:22:01.923Z,1014.1
2018-06-03T21:27:02.005Z,1014.1
2018-06-03T21:32:01.916Z,1014.2
2018-06-03T21:37:02.429Z,1014
2018-06-03T21:42:13.740Z,1014
2018-06-03T21:47:13.628Z,1014
2018-06-03T21:52:13.667Z,1014.1
2018-06-03T21:57:13.798Z,1014.1
2018-06-03T22:02:13.731Z,1014.1
2018-06-03T22:07:14.603Z,1014
2018-06-03T22:12:14.645Z,1014.1
2018-06-03T22:17:16.608Z,1014.1
2018-06-03T22:22:16.329Z,1014
2018-06-03T22:27:28.864Z,1014.1
2018-06-03T22:32:28.793Z,1014.2
2018-06-03T22:37:28.577Z,1014.2
2018-06-03T22:42:28.733Z,1014.1
2018-06-03T22:47:28.787Z,1014.1
2018-06-03T22:52:28.808Z,1014
2018-06-03T22:57:28.602Z,1014
2018-06-03T23:02:28.904Z,1014
2018-06-03T23:07:28.813Z,1014.2
2018-06-03T23:12:41.030Z,1014
2018-06-03T23:17:40.970Z,1014
2018-06-03T23:22:40.915Z,1014.1
2018-06-03T23:27:40.769Z,1014.1
2018-06-03T23:32:40.975Z,1014.1
2018-06-03T23:37:40.772Z,1014
2018-06-03T23:42:40.935Z,1014
2018-06-03T23:47:41.695Z,1013.9
2018-06-03T23:52:41.618Z,1013.9
2018-06-03T23:57:54.519Z,1014
